createdAt,value
2023-05-14T00:01:00.667Z,19.7485
2023-05-14T00:02:01.901Z,19.7444
2023-05-14T00:03:02.959Z,19.7836
2023-05-14T00:04:04.007Z,19.8157
2023-05-14T00:05:05.074Z,19.6655
2023-05-14T00:06:06.136Z,19.5922
2023-05-14T00:07:07.234Z,19.5688
2023-05-14T00:08:08.331Z,19.4776
2023-05-14T00:09:09.432Z,19.4227
2023-05-14T00:10:10.525Z,19.5745
2023-05-14T00:11:11.627Z,19.7091
2023-05-14T00:12:12.717Z,19.6850
2023-05-14T00:13:13.788Z,19.6378
2023-05-14T00:14:14.898Z,19.5971
2023-05-14T00:15:16.002Z,19.6055
2023-05-14T00:16:17.102Z,19.6536
2023-05-14T00:17:18.193Z,19.7054
2023-05-14T00:18:19.302Z,19.6733
2023-05-14T00:19:20.667Z,19.6146
2023-05-14T00:20:21.736Z,19.6415
2023-05-14T00:21:22.589Z,19.6100
2023-05-14T00:22:23.671Z,19.7255
2023-05-14T00:23:24.765Z,19.8000
2023-05-14T00:24:25.856Z,19.7298
2023-05-14T00:25:26.981Z,19.6947
2023-05-14T00:26:28.050Z,19.7023
2023-05-14T00:27:29.161Z,19.7664
2023-05-14T00:28:30.235Z,19.8617
2023-05-14T00:29:31.373Z,19.8927
2023-05-14T00:30:32.406Z,19.8276
2023-05-14T00:31:33.532Z,19.8208
2023-05-14T00:32:34.653Z,19.9077
2023-05-14T00:33:35.717Z,19.9447
2023-05-14T00:34:36.812Z,19.9089
2023-05-14T00:35:37.898Z,19.9173
2023-05-14T00:36:39.028Z,19.9104
2023-05-14T00:37:40.105Z,19.8245
2023-05-14T00:38:41.181Z,19.7731
2023-05-14T00:39:42.275Z,19.6137
2023-05-14T00:40:43.396Z,19.5067
2023-05-14T00:41:44.485Z,19.4798
2023-05-14T00:42:45.581Z,19.4913
2023-05-14T00:43:46.673Z,19.5338
2023-05-14T00:44:47.765Z,19.5030
2023-05-14T00:45:48.856Z,19.5509
2023-05-14T00:46:49.985Z,19.5425
2023-05-14T00:47:51.092Z,19.4854
2023-05-14T00:48:52.139Z,19.5269
2023-05-14T00:49:53.230Z,19.4839
2023-05-14T00:50:54.357Z,19.4952
2023-05-14T00:51:55.445Z,19.5390
2023-05-14T00:52:56.535Z,19.6612
2023-05-14T00:53:57.622Z,19.7031
2023-05-14T00:54:58.729Z,19.6780
2023-05-14T00:55:59.840Z,19.6684
2023-05-14T00:57:00.940Z,19.6889
2023-05-14T00:58:02.025Z,19.7049
2023-05-14T00:59:03.145Z,19.7415
2023-05-14T01:00:04.215Z,19.7571
2023-05-14T01:01:05.348Z,19.7791
2023-05-14T01:02:06.408Z,19.7177
2023-05-14T01:03:07.648Z,19.7156
2023-05-14T01:04:08.641Z,19.7006
2023-05-14T01:05:09.691Z,19.6702
2023-05-14T01:06:10.805Z,19.6347
2023-05-14T01:07:11.877Z,19.6616
2023-05-14T01:08:12.975Z,19.7047
2023-05-14T01:09:14.074Z,19.7191
2023-05-14T01:10:15.170Z,19.7427
2023-05-14T01:11:16.272Z,19.7524
2023-05-14T01:12:17.350Z,19.7534
2023-05-14T01:13:18.521Z,19.7914
2023-05-14T01:14:19.541Z,19.7853
2023-05-14T01:15:20.635Z,19.7503
2023-05-14T01:16:21.784Z,19.6026
2023-05-14T01:17:22.836Z,19.5160
2023-05-14T01:18:23.942Z,19.6873
2023-05-14T01:19:25.017Z,19.7998
2023-05-14T01:20:26.290Z,19.8434
2023-05-14T01:21:27.233Z,19.8617
2023-05-14T01:22:28.297Z,19.7863
2023-05-14T01:23:29.388Z,19.6684
2023-05-14T01:24:30.482Z,19.7019
2023-05-14T01:25:31.598Z,19.7027
2023-05-14T01:26:32.689Z,19.6593
2023-05-14T01:27:33.777Z,19.6534
2023-05-14T01:28:34.878Z,19.7401
2023-05-14T01:29:35.951Z,19.7536
2023-05-14T01:30:37.067Z,19.7970
2023-05-14T01:31:38.229Z,19.8485
2023-05-14T01:32:39.316Z,19.8631
2023-05-14T01:33:40.353Z,19.8563
2023-05-14T01:34:41.453Z,19.8876
2023-05-14T01:35:42.572Z,19.8140
2023-05-14T01:36:43.654Z,19.7584
2023-05-14T01:37:44.730Z,19.6708
2023-05-14T01:38:45.871Z,19.5550
2023-05-14T01:39:46.936Z,19.6252
2023-05-14T01:40:48.043Z,19.5862
2023-05-14T01:41:49.124Z,19.5392
2023-05-14T01:42:50.243Z,19.5439
2023-05-14T01:43:51.297Z,19.5324
2023-05-14T01:44:52.408Z,19.4886
2023-05-14T01:45:53.543Z,19.5971
2023-05-14T01:46:54.650Z,19.6992
2023-05-14T01:47:55.715Z,19.7306
2023-05-14T01:48:56.799Z,19.6320
2023-05-14T01:49:57.910Z,19.6172
2023-05-14T01:50:58.994Z,19.7423
2023-05-14T01:52:00.111Z,19.7434
2023-05-14T01:53:01.171Z,19.7871
2023-05-14T01:54:02.282Z,19.7056
2023-05-14T01:55:03.393Z,19.6789
2023-05-14T01:56:04.478Z,19.6908
2023-05-14T01:57:05.604Z,19.6889
2023-05-14T01:58:06.655Z,19.6984
2023-05-14T01:59:07.758Z,19.7045
2023-05-14T02:00:08.857Z,19.6930
2023-05-14T02:01:09.985Z,19.7000
2023-05-14T02:02:11.057Z,19.6957
2023-05-14T02:03:12.228Z,19.7477
2023-05-14T02:04:13.329Z,19.6947
2023-05-14T02:05:21.869Z,19.6875
2023-05-14T02:06:15.422Z,19.7889
2023-05-14T02:07:16.562Z,19.7772
2023-05-14T02:08:17.639Z,19.7890
2023-05-14T02:09:18.711Z,19.7988
2023-05-14T02:10:27.398Z,19.7134
2023-05-14T02:11:20.923Z,19.7170
2023-05-14T02:12:22.049Z,19.7298
2023-05-14T02:13:23.103Z,19.7411
2023-05-14T02:14:24.217Z,19.6858
2023-05-14T02:15:25.310Z,19.6982
2023-05-14T02:16:26.419Z,19.7294
2023-05-14T02:17:27.577Z,19.6897
2023-05-14T02:18:28.634Z,19.6852
2023-05-14T02:19:29.712Z,19.7008
2023-05-14T02:20:30.809Z,19.7263
2023-05-14T02:21:31.889Z,19.7489
2023-05-14T02:22:33.010Z,19.8033
2023-05-14T02:23:40.936Z,19.8027
2023-05-14T02:24:36.183Z,19.7715
2023-05-14T02:25:36.298Z,19.7894
2023-05-14T02:26:37.412Z,19.7643
2023-05-14T02:27:38.507Z,19.7789
2023-05-14T02:28:39.573Z,19.7762
2023-05-14T02:29:40.669Z,19.6037
2023-05-14T02:30:41.765Z,19.5548
2023-05-14T02:31:42.908Z,19.6585
2023-05-14T02:32:44.045Z,19.7598
2023-05-14T02:33:45.081Z,19.8146
2023-05-14T02:34:46.154Z,19.6575
2023-05-14T02:35:47.273Z,19.5881
2023-05-14T02:36:48.337Z,19.6431
2023-05-14T02:37:49.464Z,19.6971
2023-05-14T02:38:50.556Z,19.6782
2023-05-14T02:39:51.633Z,19.6721
2023-05-14T02:40:52.741Z,19.7641
2023-05-14T02:41:53.823Z,19.8150
2023-05-14T02:42:55.032Z,19.8493
2023-05-14T02:43:56.081Z,19.7949
2023-05-14T02:44:57.223Z,19.7099
2023-05-14T02:45:58.294Z,19.7323
2023-05-14T02:46:59.422Z,19.7976
2023-05-14T02:48:00.522Z,19.8040
2023-05-14T02:49:01.569Z,19.7844
2023-05-14T02:50:02.696Z,19.7553
2023-05-14T02:51:03.786Z,19.6460
2023-05-14T02:52:04.890Z,19.5994
2023-05-14T02:53:05.989Z,19.5564
2023-05-14T02:54:07.051Z,19.5217
2023-05-14T02:55:08.168Z,19.5753
2023-05-14T02:56:09.287Z,19.6571
2023-05-14T02:57:10.376Z,19.6608
2023-05-14T02:58:11.470Z,19.6080
2023-05-14T02:59:12.559Z,19.5953
2023-05-14T03:00:13.642Z,19.6170
2023-05-14T03:01:14.765Z,19.6626
2023-05-14T03:02:15.900Z,19.7185
2023-05-14T03:03:17.044Z,19.7290
2023-05-14T03:04:18.029Z,19.6187
2023-05-14T03:05:19.115Z,19.4967
2023-05-14T03:06:20.227Z,19.5252
2023-05-14T03:07:21.317Z,19.5679
2023-05-14T03:08:22.458Z,19.6100
2023-05-14T03:09:23.520Z,19.5823
2023-05-14T03:10:24.816Z,19.6115
2023-05-14T03:11:25.725Z,19.6357
2023-05-14T03:12:26.793Z,19.7066
2023-05-14T03:13:27.921Z,19.6735
2023-05-14T03:14:29.008Z,19.6869
2023-05-14T03:15:30.091Z,19.6727
2023-05-14T03:16:31.229Z,19.6899
2023-05-14T03:17:32.327Z,19.7306
2023-05-14T03:18:33.427Z,19.7924
2023-05-14T03:19:34.472Z,19.7662
2023-05-14T03:20:35.567Z,19.6865
2023-05-14T03:21:36.669Z,19.7263
2023-05-14T03:22:37.748Z,19.7686
2023-05-14T03:23:38.864Z,19.7495
2023-05-14T03:24:40.003Z,19.7423
2023-05-14T03:25:41.048Z,19.7501
2023-05-14T03:26:42.158Z,19.7717
2023-05-14T03:27:43.239Z,19.7750
2023-05-14T03:28:44.330Z,19.7805
2023-05-14T03:29:45.421Z,19.7836
2023-05-14T03:30:46.533Z,19.7775
2023-05-14T03:31:47.630Z,19.6834
2023-05-14T03:32:48.733Z,19.6142
2023-05-14T03:33:49.836Z,19.5996
2023-05-14T03:34:50.905Z,19.5722
2023-05-14T03:35:51.999Z,19.6181
2023-05-14T03:36:53.112Z,19.6986
2023-05-14T03:37:54.204Z,19.6698
2023-05-14T03:38:55.314Z,19.5924
2023-05-14T03:39:56.396Z,19.6322
2023-05-14T03:40:57.508Z,19.6704
2023-05-14T03:41:58.578Z,19.7961
2023-05-14T03:42:59.733Z,19.8705
2023-05-14T03:44:00.817Z,19.9028
2023-05-14T03:45:01.873Z,19.9112
2023-05-14T03:46:03.006Z,19.9140
2023-05-14T03:47:04.082Z,19.9184
2023-05-14T03:48:05.284Z,19.8888
2023-05-14T03:49:06.322Z,19.8894
2023-05-14T03:50:07.359Z,19.9212
2023-05-14T03:51:08.477Z,19.9664
2023-05-14T03:52:09.519Z,19.9607
2023-05-14T03:53:10.608Z,19.9453
2023-05-14T03:54:11.759Z,19.9414
2023-05-14T03:55:12.804Z,19.9223
2023-05-14T03:56:13.910Z,19.9356
2023-05-14T03:57:15.010Z,19.7951
2023-05-14T03:58:16.134Z,19.7709
2023-05-14T03:59:17.193Z,19.7341
2023-05-14T04:00:18.293Z,19.7686
2023-05-14T04:01:19.387Z,19.6725
2023-05-14T04:02:20.513Z,19.6330
2023-05-14T04:03:21.647Z,19.6671
2023-05-14T04:04:22.699Z,19.7343
2023-05-14T04:05:23.755Z,19.7308
2023-05-14T04:06:24.854Z,19.7514
2023-05-14T04:07:25.946Z,19.7717
2023-05-14T04:08:27.060Z,19.8017
2023-05-14T04:09:28.189Z,19.8159
2023-05-14T04:10:29.240Z,19.8111
2023-05-14T04:11:30.335Z,19.7807
2023-05-14T04:12:31.419Z,19.7791
2023-05-14T04:13:32.537Z,19.7727
2023-05-14T04:14:33.659Z,19.7668
2023-05-14T04:15:34.723Z,19.5944
2023-05-14T04:16:35.873Z,19.5232
2023-05-14T04:17:36.949Z,19.6024
2023-05-14T04:18:38.052Z,19.6735
2023-05-14T04:19:39.142Z,19.6996
2023-05-14T04:20:40.211Z,19.6782
2023-05-14T04:21:41.288Z,19.7366
2023-05-14T04:22:42.396Z,19.7374
2023-05-14T04:23:43.508Z,19.7045
2023-05-14T04:24:44.587Z,19.7023
2023-05-14T04:25:45.694Z,19.7189
2023-05-14T04:26:46.785Z,19.7875
2023-05-14T04:27:47.867Z,19.7701
2023-05-14T04:28:48.970Z,19.7376
2023-05-14T04:29:50.056Z,19.7625
2023-05-14T04:30:51.160Z,19.7680
2023-05-14T04:31:52.300Z,19.7750
2023-05-14T04:32:53.383Z,19.7602
2023-05-14T04:33:54.442Z,19.6610
2023-05-14T04:34:55.550Z,19.7397
2023-05-14T04:35:56.664Z,19.7916
2023-05-14T04:36:57.737Z,19.8296
2023-05-14T04:37:58.828Z,19.8009
2023-05-14T04:38:59.925Z,19.7787
2023-05-14T04:40:01.044Z,19.8060
2023-05-14T04:41:02.153Z,19.8003
2023-05-14T04:42:03.231Z,19.7374
2023-05-14T04:43:04.329Z,19.7526
2023-05-14T04:44:05.405Z,19.6635
2023-05-14T04:45:06.520Z,19.6485
2023-05-14T04:46:07.638Z,19.7086
2023-05-14T04:47:08.682Z,19.7222
2023-05-14T04:48:09.831Z,19.7507
2023-05-14T04:49:10.910Z,19.7306
2023-05-14T04:50:11.999Z,19.7103
2023-05-14T04:51:13.084Z,19.6801
2023-05-14T04:52:14.189Z,19.7302
2023-05-14T04:53:15.277Z,19.7972
2023-05-14T04:54:16.404Z,19.6326
2023-05-14T04:55:17.486Z,19.6057
2023-05-14T04:56:18.598Z,19.6778
2023-05-14T04:57:19.651Z,19.6616
2023-05-14T04:58:20.740Z,19.6176
2023-05-14T04:59:21.834Z,19.6460
2023-05-14T05:00:23.296Z,19.6507
2023-05-14T05:01:24.087Z,19.7473
2023-05-14T05:02:25.178Z,19.8122
2023-05-14T05:03:26.262Z,19.8508
2023-05-14T05:04:27.325Z,19.8475
2023-05-14T05:05:28.444Z,19.7401
2023-05-14T05:06:29.537Z,19.7473
2023-05-14T05:07:30.641Z,19.7538
2023-05-14T05:08:31.716Z,19.6953
2023-05-14T05:09:32.819Z,19.7093
2023-05-14T05:10:33.958Z,19.7448
2023-05-14T05:11:35.024Z,19.6998
2023-05-14T05:12:36.102Z,19.7688
2023-05-14T05:13:37.199Z,19.7770
2023-05-14T05:14:38.306Z,19.6922
2023-05-14T05:15:39.456Z,19.6308
2023-05-14T05:16:40.510Z,19.7238
2023-05-14T05:17:41.643Z,19.8148
2023-05-14T05:18:42.716Z,19.8535
2023-05-14T05:19:44.621Z,19.8383
2023-05-14T05:20:44.887Z,19.8085
2023-05-14T05:21:46.006Z,19.7226
2023-05-14T05:22:47.093Z,19.7534
2023-05-14T05:23:48.174Z,19.7600
2023-05-14T05:24:50.029Z,19.7448
2023-05-14T05:25:50.402Z,19.7536
2023-05-14T05:26:51.495Z,19.7325
2023-05-14T05:27:52.552Z,19.6980
2023-05-14T05:28:53.649Z,19.7532
2023-05-14T05:29:54.747Z,19.7914
2023-05-14T05:30:55.869Z,19.7719
2023-05-14T05:31:57.019Z,19.7487
2023-05-14T05:32:58.092Z,19.7471
2023-05-14T05:33:59.157Z,19.6119
2023-05-14T05:35:00.239Z,19.6552
2023-05-14T05:36:01.352Z,19.5729
2023-05-14T05:37:02.439Z,19.6429
2023-05-14T05:38:03.543Z,19.6731
2023-05-14T05:39:04.639Z,19.7039
2023-05-14T05:40:05.744Z,19.7056
2023-05-14T05:41:06.855Z,19.6959
2023-05-14T05:42:07.932Z,19.7037
2023-05-14T05:43:09.020Z,19.7633
2023-05-14T05:44:10.124Z,19.7699
2023-05-14T05:45:11.215Z,19.8216
2023-05-14T05:46:12.343Z,19.7696
2023-05-14T05:47:13.438Z,19.6934
2023-05-14T05:48:14.537Z,19.6643
2023-05-14T05:49:15.621Z,19.7343
2023-05-14T05:50:18.399Z,19.8000
2023-05-14T05:51:17.851Z,19.7033
2023-05-14T05:52:18.900Z,19.6690
2023-05-14T05:53:20.035Z,19.6661
2023-05-14T05:54:21.105Z,19.7179
2023-05-14T05:55:22.210Z,19.7325
2023-05-14T05:56:23.311Z,19.7360
2023-05-14T05:57:26.305Z,19.7522
2023-05-14T05:58:25.525Z,19.7692
2023-05-14T05:59:26.628Z,19.8083
2023-05-14T06:00:27.701Z,19.8818
2023-05-14T06:01:28.832Z,19.9177
2023-05-14T06:02:29.997Z,19.8935
2023-05-14T06:03:31.003Z,19.8471
2023-05-14T06:04:32.129Z,19.6745
2023-05-14T06:05:33.303Z,19.6347
2023-05-14T06:06:34.328Z,19.6333
2023-05-14T06:07:35.389Z,19.5961
2023-05-14T06:08:36.513Z,19.6585
2023-05-14T06:09:37.629Z,19.7175
2023-05-14T06:10:38.709Z,19.7672
2023-05-14T06:11:39.800Z,19.7222
2023-05-14T06:12:40.908Z,19.7204
2023-05-14T06:13:41.994Z,19.7450
2023-05-14T06:14:43.107Z,19.6563
2023-05-14T06:15:44.218Z,19.6491
2023-05-14T06:16:45.362Z,19.7380
2023-05-14T06:17:46.439Z,19.8619
2023-05-14T06:18:47.510Z,19.8797
2023-05-14T06:19:48.632Z,19.8604
2023-05-14T06:20:49.682Z,19.8099
2023-05-14T06:21:50.811Z,19.8015
2023-05-14T06:22:51.899Z,19.7768
2023-05-14T06:23:53.002Z,19.7082
2023-05-14T06:24:54.104Z,19.6815
2023-05-14T06:25:55.174Z,19.6454
2023-05-14T06:26:56.294Z,19.7516
2023-05-14T06:27:57.358Z,19.7489
2023-05-14T06:28:58.471Z,19.7571
2023-05-14T06:29:59.581Z,19.7922
2023-05-14T06:31:00.671Z,19.8777
2023-05-14T06:32:01.842Z,19.9325
2023-05-14T06:33:02.884Z,19.8793
2023-05-14T06:34:03.957Z,19.7010
2023-05-14T06:35:05.058Z,19.6772
2023-05-14T06:36:06.148Z,19.7074
2023-05-14T06:37:07.275Z,19.6497
2023-05-14T06:38:08.367Z,19.5632
2023-05-14T06:39:09.466Z,19.6715
2023-05-14T06:40:10.550Z,19.7146
2023-05-14T06:41:11.642Z,19.7631
2023-05-14T06:42:12.750Z,19.8397
2023-05-14T06:43:13.941Z,19.8943
2023-05-14T06:44:15.033Z,19.9165
2023-05-14T06:45:16.143Z,19.8249
2023-05-14T06:46:17.238Z,19.6330
2023-05-14T06:47:18.320Z,19.6793
2023-05-14T06:48:19.536Z,19.7641
2023-05-14T06:49:20.540Z,19.7510
2023-05-14T06:50:21.828Z,19.6858
2023-05-14T06:51:22.723Z,19.6189
2023-05-14T06:52:23.827Z,19.7284
2023-05-14T06:53:24.934Z,19.7557
2023-05-14T06:54:26.038Z,19.7282
2023-05-14T06:55:27.101Z,19.7865
2023-05-14T06:56:28.221Z,19.8142
2023-05-14T06:57:29.323Z,19.7635
2023-05-14T06:58:30.429Z,19.7415
2023-05-14T06:59:31.505Z,19.7314
2023-05-14T07:00:32.624Z,19.6858
2023-05-14T07:01:33.746Z,19.7002
2023-05-14T07:02:34.834Z,19.7514
2023-05-14T07:03:35.899Z,19.7017
2023-05-14T07:04:37.081Z,19.7329
2023-05-14T07:05:38.116Z,19.7867
2023-05-14T07:06:39.219Z,19.8171
2023-05-14T07:07:40.325Z,19.8300
2023-05-14T07:08:41.408Z,19.7349
2023-05-14T07:09:42.496Z,19.6651
2023-05-14T07:10:43.619Z,19.5889
2023-05-14T07:11:44.720Z,19.6489
2023-05-14T07:12:45.846Z,19.7247
2023-05-14T07:13:46.935Z,19.8189
2023-05-14T07:14:48.028Z,19.8625
2023-05-14T07:15:49.098Z,19.8465
2023-05-14T07:16:50.258Z,19.8627
2023-05-14T07:17:51.345Z,19.7701
2023-05-14T07:18:52.450Z,19.7078
2023-05-14T07:19:53.496Z,19.7208
2023-05-14T07:20:54.587Z,19.7142
2023-05-14T07:21:55.709Z,19.6563
2023-05-14T07:22:56.841Z,19.6207
2023-05-14T07:23:57.884Z,19.6113
2023-05-14T07:24:58.984Z,19.6203
2023-05-14T07:26:00.096Z,19.7025
2023-05-14T07:27:01.203Z,19.7699
2023-05-14T07:28:02.288Z,19.8124
2023-05-14T07:29:03.406Z,19.7251
2023-05-14T07:30:04.482Z,19.7386
2023-05-14T07:31:05.681Z,19.7347
2023-05-14T07:32:06.701Z,19.6201
2023-05-14T07:33:07.829Z,19.6158
2023-05-14T07:34:08.886Z,19.6587
2023-05-14T07:35:09.975Z,19.6978
2023-05-14T07:36:11.123Z,19.6998
2023-05-14T07:37:12.194Z,19.7386
2023-05-14T07:38:13.273Z,19.7454
2023-05-14T07:39:14.364Z,19.7091
2023-05-14T07:40:15.481Z,19.6719
2023-05-14T07:41:16.571Z,19.7191
2023-05-14T07:42:28.004Z,19.7228
2023-05-14T07:43:19.778Z,19.7645
2023-05-14T07:44:19.865Z,19.7789
2023-05-14T07:45:20.957Z,19.7957
2023-05-14T07:46:22.070Z,19.8081
2023-05-14T07:47:23.188Z,19.7694
2023-05-14T07:48:24.341Z,19.7820
2023-05-14T07:49:25.377Z,19.7949
2023-05-14T07:50:26.748Z,19.8216
2023-05-14T07:51:27.560Z,19.8617
2023-05-14T07:52:28.637Z,19.8461
2023-05-14T07:53:29.758Z,19.8352
2023-05-14T07:54:30.850Z,19.7873
2023-05-14T07:55:31.952Z,19.7783
2023-05-14T07:56:33.055Z,19.7684
2023-05-14T07:57:34.152Z,19.7859
2023-05-14T07:58:35.255Z,19.7668
2023-05-14T07:59:36.345Z,19.6869
2023-05-14T08:00:37.450Z,19.7947
2023-05-14T08:01:39.480Z,19.8621
2023-05-14T08:02:39.766Z,19.8066
2023-05-14T08:03:40.793Z,19.7772
2023-05-14T08:04:41.839Z,19.7464
2023-05-14T08:05:42.964Z,19.7222
2023-05-14T08:06:44.053Z,19.7271
2023-05-14T08:07:45.163Z,19.7620
2023-05-14T08:08:46.321Z,19.7676
2023-05-14T08:09:47.348Z,19.8192
2023-05-14T08:10:48.457Z,19.8520
2023-05-14T08:11:49.553Z,19.8235
2023-05-14T08:12:50.651Z,19.7590
2023-05-14T08:13:51.757Z,19.8118
2023-05-14T08:14:52.846Z,19.7964
2023-05-14T08:15:53.955Z,19.8514
2023-05-14T08:16:55.116Z,19.8576
2023-05-14T08:17:56.202Z,19.8528
2023-05-14T08:18:57.291Z,19.7922
2023-05-14T08:19:58.320Z,19.7957
2023-05-14T08:20:59.441Z,19.7766
2023-05-14T08:22:00.555Z,19.8325
2023-05-14T08:23:01.636Z,19.8325
2023-05-14T08:24:02.726Z,19.8130
2023-05-14T08:25:03.813Z,19.8085
2023-05-14T08:26:04.918Z,19.8265
2023-05-14T08:27:06.018Z,19.8832
2023-05-14T08:28:07.134Z,19.8430
2023-05-14T08:29:09.362Z,19.8136
2023-05-14T08:30:09.295Z,19.8068
2023-05-14T08:31:10.440Z,19.7900
2023-05-14T08:32:22.006Z,19.7343
2023-05-14T08:33:13.608Z,19.8161
2023-05-14T08:34:13.716Z,19.8643
2023-05-14T08:35:14.808Z,19.8572
2023-05-14T08:36:15.896Z,19.8325
2023-05-14T08:37:16.991Z,19.8017
2023-05-14T08:38:18.097Z,19.7945
2023-05-14T08:39:19.188Z,19.7943
2023-05-14T08:40:20.278Z,19.7649
2023-05-14T08:41:21.382Z,19.7503
2023-05-14T08:42:22.487Z,19.7705
2023-05-14T08:43:23.581Z,19.7840
2023-05-14T08:44:24.665Z,19.8422
2023-05-14T08:45:25.826Z,19.8574
2023-05-14T08:46:26.849Z,19.8212
2023-05-14T08:47:27.977Z,19.8196
2023-05-14T08:48:29.141Z,19.7920
2023-05-14T08:49:30.175Z,19.6460
2023-05-14T08:50:31.337Z,19.6561
2023-05-14T08:51:32.327Z,19.7395
2023-05-14T08:52:33.428Z,19.8054
2023-05-14T08:53:34.534Z,19.9044
2023-05-14T08:54:35.648Z,19.9892
2023-05-14T08:55:36.705Z,20.0272
2023-05-14T08:56:37.805Z,20.0285
2023-05-14T08:57:38.903Z,19.9118
2023-05-14T08:58:40.020Z,19.8253
2023-05-14T08:59:41.108Z,19.7195
2023-05-14T09:00:42.207Z,19.7411
2023-05-14T09:01:43.283Z,19.7442
2023-05-14T09:02:44.488Z,19.7027
2023-05-14T09:03:45.580Z,19.6908
2023-05-14T09:04:46.570Z,19.7485
2023-05-14T09:05:47.692Z,19.7653
2023-05-14T09:06:48.754Z,19.7222
2023-05-14T09:07:49.858Z,19.8426
2023-05-14T09:08:50.976Z,19.8997
2023-05-14T09:09:52.095Z,19.8715
2023-05-14T09:10:53.162Z,19.8007
2023-05-14T09:11:54.264Z,19.6873
2023-05-14T09:12:55.357Z,19.6472
2023-05-14T09:13:56.431Z,19.7343
2023-05-14T09:14:57.579Z,19.7801
2023-05-14T09:15:58.668Z,19.8444
2023-05-14T09:16:59.729Z,19.8070
2023-05-14T09:18:00.870Z,19.6706
2023-05-14T09:19:02.019Z,19.5870
2023-05-14T09:20:03.073Z,19.5170
2023-05-14T09:21:04.144Z,19.6737
2023-05-14T09:22:05.253Z,19.8226
2023-05-14T09:23:06.324Z,19.8818
2023-05-14T09:24:07.428Z,19.8900
2023-05-14T09:25:08.554Z,19.8590
2023-05-14T09:26:09.643Z,19.9149
2023-05-14T09:27:10.729Z,19.9712
2023-05-14T09:28:11.871Z,20.0262
2023-05-14T09:29:12.937Z,20.0385
2023-05-14T09:30:14.046Z,20.0412
2023-05-14T09:31:15.156Z,20.0521
2023-05-14T09:32:16.229Z,20.0414
2023-05-14T09:33:17.325Z,20.0346
2023-05-14T09:34:18.425Z,20.0272
2023-05-14T09:35:19.530Z,19.8582
2023-05-14T09:36:20.600Z,19.6875
2023-05-14T09:37:21.725Z,19.6505
2023-05-14T09:38:22.798Z,19.6374
2023-05-14T09:39:23.918Z,19.6289
2023-05-14T09:40:25.402Z,19.6505
2023-05-14T09:41:26.091Z,19.6203
2023-05-14T09:42:27.196Z,19.6271
2023-05-14T09:43:28.298Z,19.6567
2023-05-14T09:44:29.439Z,19.6899
2023-05-14T09:45:30.518Z,19.7288
2023-05-14T09:46:31.612Z,19.7054
2023-05-14T09:47:32.803Z,19.7103
2023-05-14T09:48:33.824Z,19.7830
2023-05-14T09:49:34.883Z,19.8779
2023-05-14T09:50:35.965Z,19.9434
2023-05-14T09:51:37.061Z,19.9740
2023-05-14T09:52:38.171Z,19.9638
2023-05-14T09:53:39.262Z,19.9874
2023-05-14T09:54:40.362Z,19.9110
2023-05-14T09:55:41.474Z,19.8939
2023-05-14T09:56:42.529Z,19.7976
2023-05-14T09:57:43.648Z,19.7540
2023-05-14T09:58:44.750Z,19.8654
2023-05-14T09:59:45.841Z,19.9223
2023-05-14T10:00:46.967Z,19.9237
2023-05-14T10:01:48.017Z,19.9153
2023-05-14T10:02:49.147Z,19.8506
2023-05-14T10:03:50.299Z,19.7273
2023-05-14T10:04:51.414Z,19.7409
2023-05-14T10:05:52.422Z,19.7641
2023-05-14T10:06:53.511Z,19.7879
2023-05-14T10:07:54.604Z,19.7501
2023-05-14T10:08:55.680Z,19.7160
2023-05-14T10:09:58.148Z,19.7575
2023-05-14T10:10:57.869Z,19.7655
2023-05-14T10:11:58.992Z,19.7571
2023-05-14T10:13:00.107Z,19.6815
2023-05-14T10:14:01.203Z,19.6275
2023-05-14T10:15:02.260Z,19.6727
2023-05-14T10:16:03.392Z,19.7353
2023-05-14T10:17:04.501Z,19.7454
2023-05-14T10:18:05.615Z,19.7713
2023-05-14T10:19:06.666Z,19.8337
2023-05-14T10:20:07.751Z,19.9091
2023-05-14T10:21:08.845Z,19.9611
2023-05-14T10:22:09.929Z,19.9543
2023-05-14T10:23:11.076Z,19.8732
2023-05-14T10:24:12.156Z,19.7614
2023-05-14T10:25:13.245Z,19.8054
2023-05-14T10:26:14.335Z,19.8216
2023-05-14T10:27:15.435Z,19.8076
2023-05-14T10:28:16.526Z,19.8261
2023-05-14T10:29:17.636Z,19.8890
2023-05-14T10:30:18.727Z,19.8853
2023-05-14T10:31:19.876Z,19.8325
2023-05-14T10:32:20.961Z,19.8060
2023-05-14T10:33:22.033Z,19.7571
2023-05-14T10:34:23.100Z,19.8173
2023-05-14T10:35:24.214Z,19.8785
2023-05-14T10:36:25.300Z,19.9810
2023-05-14T10:37:26.421Z,19.9907
2023-05-14T10:38:27.512Z,19.9730
2023-05-14T10:39:28.593Z,19.9931
2023-05-14T10:40:29.691Z,19.9995
2023-05-14T10:41:30.832Z,20.0014
2023-05-14T10:42:31.923Z,19.9535
2023-05-14T10:43:33.022Z,19.9677
2023-05-14T10:44:34.168Z,19.9204
2023-05-14T10:45:35.226Z,19.9578
2023-05-14T10:46:36.366Z,19.9260
2023-05-14T10:47:37.491Z,19.9691
2023-05-14T10:48:38.550Z,19.9859
2023-05-14T10:49:43.425Z,19.9592
2023-05-14T10:50:40.770Z,19.9601
2023-05-14T10:51:41.916Z,19.9738
2023-05-14T10:52:42.894Z,20.0278
2023-05-14T10:53:44.025Z,20.0439
2023-05-14T10:54:45.118Z,20.0576
2023-05-14T10:55:46.199Z,20.0806
2023-05-14T10:56:47.313Z,20.0324
2023-05-14T10:57:48.393Z,20.0264
2023-05-14T10:58:49.535Z,20.0297
2023-05-14T10:59:50.590Z,20.0379
2023-05-14T11:00:51.718Z,20.0587
2023-05-14T11:01:52.801Z,20.0289
2023-05-14T11:02:53.898Z,19.8146
2023-05-14T11:03:55.011Z,19.6916
2023-05-14T11:04:56.073Z,19.8054
2023-05-14T11:05:57.152Z,19.9479
2023-05-14T11:06:58.245Z,20.0139
2023-05-14T11:07:59.329Z,20.0188
2023-05-14T11:09:00.407Z,20.0205
2023-05-14T11:10:01.511Z,20.0196
2023-05-14T11:11:02.608Z,19.9909
2023-05-14T11:12:03.744Z,19.9566
2023-05-14T11:13:04.799Z,19.9814
2023-05-14T11:14:06.716Z,20.0221
2023-05-14T11:15:06.978Z,20.0289
2023-05-14T11:16:21.807Z,19.9948
2023-05-14T11:17:10.240Z,19.8648
2023-05-14T11:18:10.305Z,19.8099
2023-05-14T11:19:11.561Z,19.8140
2023-05-14T11:20:12.454Z,19.8091
2023-05-14T11:21:13.534Z,19.7711
2023-05-14T11:22:14.649Z,19.6883
2023-05-14T11:23:15.699Z,19.6881
2023-05-14T11:24:16.804Z,19.6731
2023-05-14T11:25:17.905Z,19.6682
2023-05-14T11:26:21.533Z,19.7039
2023-05-14T11:27:20.089Z,19.7633
2023-05-14T11:28:21.156Z,19.8372
2023-05-14T11:29:22.253Z,19.8717
2023-05-14T11:30:23.553Z,19.9108
2023-05-14T11:31:24.486Z,19.9334
2023-05-14T11:32:25.572Z,19.9644
2023-05-14T11:33:26.641Z,19.9227
2023-05-14T11:34:27.719Z,19.9350
2023-05-14T11:35:28.806Z,19.9332
2023-05-14T11:36:29.882Z,19.7540
2023-05-14T11:37:31.022Z,19.7103
2023-05-14T11:38:32.096Z,19.7770
2023-05-14T11:39:33.181Z,19.7832
2023-05-14T11:40:34.280Z,19.8773
2023-05-14T11:41:35.351Z,19.8956
2023-05-14T11:42:36.452Z,19.9204
2023-05-14T11:43:37.561Z,19.7768
2023-05-14T11:44:38.655Z,19.6904
2023-05-14T11:45:39.759Z,19.7331
2023-05-14T11:46:40.893Z,19.7277
2023-05-14T11:47:42.006Z,19.7218
2023-05-14T11:48:43.030Z,19.6992
2023-05-14T11:49:44.122Z,19.6454
2023-05-14T11:50:45.212Z,19.7341
2023-05-14T11:51:46.298Z,19.7255
2023-05-14T11:52:47.393Z,19.7520
2023-05-14T11:53:48.504Z,19.9042
2023-05-14T11:54:49.587Z,19.9013
2023-05-14T11:55:50.696Z,19.8469
2023-05-14T11:56:51.760Z,19.7972
2023-05-14T11:57:52.855Z,19.7238
2023-05-14T11:58:53.967Z,19.7236
2023-05-14T11:59:55.040Z,19.8214
2023-05-14T12:00:56.143Z,19.8194
2023-05-14T12:01:57.235Z,19.8726
2023-05-14T12:02:58.370Z,19.9434
2023-05-14T12:03:59.471Z,20.0016
2023-05-14T12:05:00.484Z,19.9779
2023-05-14T12:06:01.599Z,19.9122
2023-05-14T12:07:02.656Z,19.8539
2023-05-14T12:08:03.793Z,19.8426
2023-05-14T12:09:04.863Z,19.9268
2023-05-14T12:10:05.975Z,20.0020
2023-05-14T12:11:07.040Z,20.0307
2023-05-14T12:12:08.129Z,20.0262
2023-05-14T12:13:09.244Z,19.9241
2023-05-14T12:14:10.332Z,19.9149
2023-05-14T12:15:11.434Z,19.9436
2023-05-14T12:16:12.629Z,19.9800
2023-05-14T12:17:13.609Z,20.0260
2023-05-14T12:18:23.950Z,19.9802
2023-05-14T12:19:16.844Z,19.9130